Upstream stations:
Downstream station:
SHEF ID: CDNT2 Canadian Rv nr Canadian, TX
STATION TYPE:
Regulating: Stage = 8.00, Flow = 5231
PRECIP STAGE RIV-FLOW BAT-LOAD
in ft cfs volt
Ccp-Rev Ccp-Rev Ccp-Rev Ccp-Rev
(US/Central)
03/21 00:00 ---- 2.18 170 12.33
03/21 01:00 ---- 2.13 164 12.33
03/21 02:00 ---- 2.16 168 12.33
03/21 03:00 ---- 2.17 169 12.25
03/21 04:00 ---- 2.14 165 12.25
03/21 05:00 ---- 2.14 165 12.25
03/21 06:00 ---- 2.13 164 12.25
03/21 07:00 ---- 2.13 164 12.25
03/21 08:00 ---- 2.09 160 12.17
03/21 09:00 ---- 2.11 162 12.25
03/21 10:00 ---- 2.11 162 12.33
03/21 11:00 ---- 2.09 160 12.41
03/21 12:00 ---- 2.09 160 12.49
03/21 13:00 ---- 2.07 157 12.57
03/21 14:00 ---- 2.07 157 12.65
03/21 15:00 ---- 2.06 156 12.73
03/21 16:00 ---- 2.08 158 12.65
03/21 17:00 ---- 2.07 157 12.57
03/21 18:00 ---- 2.08 158 12.49
03/21 19:00 ---- 2.05 155 12.49
03/21 20:00 ---- 2.04 154 12.41
03/21 21:00 ---- 2.04 154 12.41
03/21 22:00 ---- 2.04 154 12.33
03/21 23:00 ---- ---- ---- ----